createdAt,value
2022-10-05T05:18:02.851Z,97577.44
2022-10-05T05:20:20.378Z,97576.34
2022-10-05T05:22:31.035Z,97574.19
2022-10-05T05:24:49.901Z,97574.56
2022-10-05T05:27:10.629Z,97574.91
2022-10-05T05:29:23.094Z,97578.16
2022-10-05T05:31:32.181Z,97575.47
2022-10-05T05:33:48.727Z,97579.94
2022-10-05T05:36:10.549Z,97581.75
2022-10-05T05:38:25.623Z,97588.28
2022-10-05T05:40:33.153Z,97586.81
2022-10-05T05:42:46.280Z,97596.28
2022-10-05T05:44:51.767Z,97585.38
2022-10-05T05:47:04.347Z,97597.69
2022-10-05T05:49:16.803Z,97602.59
2022-10-05T05:51:26.622Z,97597.25
2022-10-05T05:53:34.079Z,97604.44
2022-10-05T05:55:43.444Z,97608.75
2022-10-05T05:57:52.183Z,97605.88
2022-10-05T06:00:03.911Z,97601.34
2022-10-05T06:02:11.924Z,97606.69
2022-10-05T06:04:20.708Z,97602.16
2022-10-05T06:06:26.929Z,97603.59
2022-10-05T06:08:36.533Z,97599.69
2022-10-05T06:10:43.759Z,97600.50
2022-10-05T06:12:51.648Z,97599.22
2022-10-05T06:15:00.060Z,97597.38
2022-10-05T06:17:07.777Z,97597.16
2022-10-05T06:19:13.303Z,97601.25
2022-10-05T06:21:22.973Z,97599.19
2022-10-05T06:23:34.274Z,97600.00
2022-10-05T06:25:48.151Z,97597.94
2022-10-05T06:28:04.704Z,97607.59
2022-10-05T06:30:11.129Z,97604.91
2022-10-05T06:32:25.918Z,97609.22
2022-10-05T06:34:49.643Z,97602.41
2022-10-05T06:37:00.116Z,97607.34
2022-10-05T06:39:41.285Z,97612.47
2022-10-05T06:42:00.995Z,97604.22
2022-10-05T06:44:10.796Z,97599.47
2022-10-05T06:46:22.932Z,97594.94
2022-10-05T06:48:33.455Z,97594.72
2022-10-05T06:50:39.719Z,97607.66
2022-10-05T06:52:55.098Z,97606.66
2022-10-05T06:55:14.545Z,97602.72
2022-10-05T06:57:36.586Z,97615.88
2022-10-05T06:59:49.648Z,97611.13
2022-10-05T07:02:02.866Z,97609.84
2022-10-05T07:04:21.172Z,97609.66
2022-10-05T07:06:27.915Z,97612.94
2022-10-05T07:08:47.121Z,97612.72
2022-10-05T07:11:03.448Z,97607.94
2022-10-05T07:13:18.543Z,97610.19
2022-10-05T07:15:36.844Z,97609.97
2022-10-05T07:17:52.929Z,97614.06
2022-10-05T07:20:03.986Z,97614.44
2022-10-05T07:22:30.450Z,97618.53
2022-10-05T07:24:43.844Z,97618.94
2022-10-05T07:26:51.016Z,97619.53
2022-10-05T07:29:14.222Z,97617.66
2022-10-05T07:31:29.680Z,97608.59
2022-10-05T07:33:39.715Z,97611.88
2022-10-05T07:36:10.235Z,97620.47
2022-10-05T07:38:21.001Z,97617.38
2022-10-05T07:40:36.570Z,97620.88
2022-10-05T07:42:52.268Z,97623.09
2022-10-05T07:45:01.395Z,97617.31
2022-10-05T07:47:11.735Z,97624.88
2022-10-05T07:49:23.074Z,97627.56
2022-10-05T07:51:32.442Z,97630.22
2022-10-05T07:53:38.804Z,97622.00
2022-10-05T07:55:49.132Z,97628.78
2022-10-05T07:57:57.311Z,97632.03
2022-10-05T08:00:05.369Z,97619.47
2022-10-05T08:02:20.403Z,97621.09
2022-10-05T08:04:28.459Z,97623.56
2022-10-05T08:06:49.376Z,97620.88
2022-10-05T08:08:58.259Z,97617.75
2022-10-05T08:11:08.541Z,97621.06
2022-10-05T08:13:20.097Z,97616.06
2022-10-05T08:15:27.181Z,97619.56
2022-10-05T08:17:40.911Z,97623.41
2022-10-05T08:19:48.655Z,97613.50
2022-10-05T08:22:00.709Z,97625.66
2022-10-05T08:24:12.080Z,97621.94
2022-10-05T08:26:25.817Z,97627.44
2022-10-05T08:28:35.218Z,97630.69
2022-10-05T08:30:54.139Z,97626.38
2022-10-05T08:33:09.006Z,97626.38
2022-10-05T08:35:27.312Z,97621.44
2022-10-05T08:37:37.469Z,97628.19
2022-10-05T08:39:42.718Z,97619.09
2022-10-05T08:42:22.571Z,97622.38
2022-10-05T08:45:10.531Z,97630.22
2022-10-05T08:47:34.392Z,97627.72
2022-10-05T08:50:04.374Z,97625.66
2022-10-05T08:52:29.888Z,97629.75
2022-10-05T08:55:01.964Z,97628.50
2022-10-05T08:57:29.578Z,97632.81
2022-10-05T08:59:58.832Z,97635.50
2022-10-05T09:02:20.710Z,97632.25
2022-10-05T09:04:44.151Z,97644.59
2022-10-05T09:07:07.515Z,97649.94
2022-10-05T09:09:49.291Z,97649.13
2022-10-05T09:12:07.495Z,97648.91
2022-10-05T09:14:39.010Z,97641.69
2022-10-05T09:17:08.760Z,97636.09
2022-10-05T09:19:43.133Z,97645.31
2022-10-05T09:21:58.543Z,97642.63
2022-10-05T09:24:16.803Z,97644.47
2022-10-05T09:26:45.102Z,97641.16
2022-10-05T09:29:12.166Z,97641.16
2022-10-05T09:31:36.817Z,97640.69
2022-10-05T09:34:14.089Z,97632.44
2022-10-05T09:36:43.642Z,97635.09
2022-10-05T09:39:14.748Z,97629.06
2022-10-05T09:41:37.007Z,97629.44
2022-10-05T09:44:08.421Z,97630.38
2022-10-05T09:46:46.092Z,97628.09
2022-10-05T09:49:21.772Z,97623.31
2022-10-05T09:51:54.357Z,97629.63
2022-10-05T09:54:52.891Z,97615.78
2022-10-05T09:57:24.136Z,97621.34
2022-10-05T09:59:52.907Z,97613.13
2022-10-05T10:02:16.913Z,97620.47
2022-10-05T10:04:30.501Z,97619.53
2022-10-05T10:06:55.131Z,97611.88
2022-10-05T10:09:17.607Z,97611.88
2022-10-05T10:11:45.337Z,97617.81
2022-10-05T10:14:18.358Z,97607.66
2022-10-05T10:16:45.778Z,97613.38
2022-10-05T10:19:17.989Z,97620.75
2022-10-05T10:21:46.132Z,97616.56
2022-10-05T10:24:03.686Z,97616.31
2022-10-05T10:26:44.175Z,97618.81
2022-10-05T10:29:03.172Z,97619.41
2022-10-05T10:31:40.505Z,97619.97
2022-10-05T10:34:03.298Z,97619.97
2022-10-05T10:36:13.451Z,97609.63
2022-10-05T10:38:41.521Z,97609.81
2022-10-05T10:41:12.017Z,97608.56
2022-10-05T10:43:36.873Z,97600.91
2022-10-05T10:45:53.781Z,97606.84
2022-10-05T10:48:11.440Z,97602.88
2022-10-05T10:50:48.697Z,97611.28
2022-10-05T10:53:09.920Z,97608.59
2022-10-05T10:55:31.875Z,97609.16
2022-10-05T10:57:51.245Z,97609.78
2022-10-05T11:00:29.037Z,97608.50
2022-10-05T11:02:57.440Z,97605.59
2022-10-05T11:05:23.326Z,97606.16
2022-10-05T11:07:57.131Z,97606.75
2022-10-05T11:10:31.288Z,97602.81
2022-10-05T11:13:24.964Z,97604.44
2022-10-05T11:15:53.184Z,97598.81
2022-10-05T11:18:11.633Z,97597.53
2022-10-05T11:20:39.448Z,97590.31
2022-10-05T11:23:27.637Z,97590.88
2022-10-05T11:25:51.350Z,97589.25
2022-10-05T11:28:24.136Z,97580.97
2022-10-05T11:30:50.296Z,97579.72
2022-10-05T11:33:24.407Z,97583.22
2022-10-05T11:35:52.079Z,97585.41
2022-10-05T11:38:09.592Z,97587.84
2022-10-05T11:40:34.280Z,97583.06
2022-10-05T11:43:11.124Z,97574.53
2022-10-05T11:45:23.920Z,97578.66
2022-10-05T11:47:30.465Z,97576.53
2022-10-05T11:49:54.724Z,97570.94
2022-10-05T11:52:12.964Z,97567.78
2022-10-05T11:54:58.463Z,97568.34
2022-10-05T11:57:05.032Z,97559.03
2022-10-05T11:59:18.848Z,97564.41
2022-10-05T12:01:30.541Z,97558.78
2022-10-05T12:03:48.062Z,97556.91
2022-10-05T12:06:21.466Z,97566.13
2022-10-05T12:08:31.812Z,97557.25
2022-10-05T12:10:44.152Z,97551.31
2022-10-05T12:13:01.319Z,97554.00
2022-10-05T12:15:18.444Z,97544.06
2022-10-05T12:17:26.279Z,97546.53
2022-10-05T12:19:36.517Z,97539.28
2022-10-05T12:21:45.926Z,97537.97
2022-10-05T12:23:54.946Z,97535.09
2022-10-05T12:26:03.104Z,97529.22
2022-10-05T12:28:11.990Z,97526.31
2022-10-05T12:30:27.454Z,97530.88
2022-10-05T12:32:35.426Z,97525.81
2022-10-05T12:34:48.695Z,97523.97
2022-10-05T12:37:04.221Z,97525.81
2022-10-05T12:39:17.793Z,97524.78
2022-10-05T12:41:26.118Z,97523.72
2022-10-05T12:43:38.600Z,97515.09
2022-10-05T12:45:55.351Z,97512.16
2022-10-05T12:48:15.493Z,97514.16
2022-10-05T12:50:23.412Z,97518.50
2022-10-05T12:52:46.851Z,97511.00
2022-10-05T12:54:58.892Z,97520.94
2022-10-05T12:57:10.495Z,97514.75
2022-10-05T12:59:22.773Z,97517.78
2022-10-05T13:01:36.640Z,97522.09
2022-10-05T13:03:45.637Z,97517.53
2022-10-05T13:06:01.679Z,97515.44
2022-10-05T13:08:14.768Z,97509.59
2022-10-05T13:10:31.609Z,97513.41
2022-10-05T13:12:47.975Z,97506.97
2022-10-05T13:15:02.776Z,97510.84
2022-10-05T13:17:15.507Z,97515.16
2022-10-05T13:19:35.366Z,97515.16
2022-10-05T13:21:59.048Z,97508.16
2022-10-05T13:24:10.681Z,97504.41
2022-10-05T13:26:18.616Z,97512.22
2022-10-05T13:28:30.890Z,97503.91
2022-10-05T13:30:35.131Z,97504.72
2022-10-05T13:32:48.395Z,97502.63
2022-10-05T13:34:58.536Z,97508.00
2022-10-05T13:37:12.453Z,97506.47
2022-10-05T13:39:30.308Z,97499.81
2022-10-05T13:41:43.804Z,97497.09
2022-10-05T13:43:59.914Z,97499.31
2022-10-05T13:46:12.723Z,97497.44
2022-10-05T13:48:28.285Z,97492.63
2022-10-05T13:50:34.649Z,97491.94
2022-10-05T13:52:48.898Z,97490.94
2022-10-05T13:54:59.762Z,97500.63
2022-10-05T13:57:12.098Z,97494.44
2022-10-05T13:59:25.798Z,97497.13
2022-10-05T14:01:36.603Z,97497.31
2022-10-05T14:03:42.347Z,97498.69
2022-10-05T14:05:56.374Z,97483.97
2022-10-05T14:08:16.843Z,97493.91
2022-10-05T14:10:35.820Z,97496.69
2022-10-05T14:12:42.078Z,97495.63
2022-10-05T14:14:48.548Z,97494.31
2022-10-05T14:16:55.425Z,97489.19
2022-10-05T14:19:18.527Z,97485.91
2022-10-05T14:21:23.381Z,97487.53
2022-10-05T14:23:27.903Z,97499.13
2022-10-05T14:25:31.607Z,97486.50
2022-10-05T14:27:36.336Z,97490.34
2022-10-05T14:29:40.052Z,97494.16
2022-10-05T14:31:51.111Z,97481.53
2022-10-05T14:33:54.404Z,97482.84
2022-10-05T14:35:59.218Z,97479.34
2022-10-05T14:38:04.690Z,97479.59
2022-10-05T14:40:24.445Z,97481.22
2022-10-05T14:42:29.980Z,97481.53
2022-10-05T14:44:33.816Z,97483.16
2022-10-05T14:46:38.542Z,97479.19
2022-10-05T14:48:43.670Z,97476.50
2022-10-05T14:50:54.979Z,97479.75
2022-10-05T14:53:16.405Z,97475.22
2022-10-05T14:55:31.298Z,97477.66
2022-10-05T14:57:43.405Z,97478.47
2022-10-05T15:00:04.022Z,97487.91
2022-10-05T15:02:31.665Z,97474.72
2022-10-05T15:04:43.448Z,97474.47
2022-10-05T15:06:55.537Z,97477.72
2022-10-05T15:09:32.678Z,97477.16
2022-10-05T15:11:42.475Z,97478.53
2022-10-05T15:13:48.620Z,97478.03
2022-10-05T15:15:54.596Z,97478.03
2022-10-05T15:18:02.588Z,97479.09
2022-10-05T15:20:18.704Z,97475.59
2022-10-05T15:22:31.593Z,97478.84
2022-10-05T15:24:43.720Z,97477.22
2022-10-05T15:26:51.419Z,97489.03
2022-10-05T15:29:01.325Z,97471.28
2022-10-05T15:31:06.658Z,97476.16
2022-10-05T15:33:18.313Z,97482.59
2022-10-05T15:35:45.804Z,97485.28
2022-10-05T15:37:54.898Z,97488.22
2022-10-05T15:40:03.647Z,97496.06
2022-10-05T15:42:11.375Z,97490.19
2022-10-05T15:44:26.029Z,97486.09
2022-10-05T15:46:35.159Z,97499.81
2022-10-05T15:48:46.771Z,97490.34
2022-10-05T15:50:56.854Z,97500.31
2022-10-05T15:53:11.929Z,97480.16
2022-10-05T15:55:27.919Z,97490.66
2022-10-05T15:57:40.012Z,97481.22
2022-10-05T15:59:54.059Z,97481.47
2022-10-05T16:02:01.460Z,97486.34
2022-10-05T16:04:13.951Z,97492.22
2022-10-05T16:06:44.164Z,97497.03
2022-10-05T16:08:59.243Z,97496.94
2022-10-05T16:11:09.813Z,97503.38
2022-10-05T16:13:22.705Z,97512.50
2022-10-05T16:15:33.330Z,97503.84
2022-10-05T16:17:51.021Z,97512.16
2022-10-05T16:20:06.203Z,97505.97
2022-10-05T16:22:20.510Z,97504.59
2022-10-05T16:24:40.920Z,97504.59
2022-10-05T16:26:59.766Z,97505.06
2022-10-05T16:29:15.719Z,97508.56
2022-10-05T16:31:23.333Z,97513.94
2022-10-05T16:33:37.313Z,97517.69
2022-10-05T16:35:47.500Z,97521.69
2022-10-05T16:38:04.851Z,97524.63
2022-10-05T16:40:19.187Z,97522.44
2022-10-05T16:42:36.721Z,97531.53
2022-10-05T16:44:48.008Z,97529.91
2022-10-05T16:46:57.403Z,97526.63
2022-10-05T16:49:10.455Z,97526.31
2022-10-05T16:51:32.083Z,97533.31
2022-10-05T16:53:39.808Z,97530.38
2022-10-05T16:55:48.190Z,97533.63
2022-10-05T16:57:56.902Z,97535.28
2022-10-05T17:00:20.262Z,97529.91
2022-10-05T17:02:35.642Z,97535.63
2022-10-05T17:04:56.735Z,97536.44
2022-10-05T17:07:23.273Z,97539.13
2022-10-05T17:09:41.117Z,97551.25
2022-10-05T17:11:58.237Z,97542.94
2022-10-05T17:14:28.034Z,97553.69
2022-10-05T17:16:41.050Z,97561.19
2022-10-05T17:19:15.316Z,97556.31
2022-10-05T17:21:23.034Z,97562.75
2022-10-05T17:23:53.426Z,97578.31
2022-10-05T17:25:59.981Z,97572.34
2022-10-05T17:28:22.057Z,97587.06
2022-10-05T17:30:48.411Z,97585.69
2022-10-05T17:33:00.598Z,97585.69
2022-10-05T17:35:20.186Z,97584.31
2022-10-05T17:37:36.318Z,97589.94
2022-10-05T17:39:49.001Z,97601.72
2022-10-05T17:41:51.852Z,97601.13
2022-10-05T17:44:26.236Z,97594.63
2022-10-05T17:46:46.579Z,97606.41
2022-10-05T17:49:18.456Z,97608.53
2022-10-05T17:52:13.043Z,97606.91
2022-10-05T17:54:38.412Z,97608.19
2022-10-05T17:57:23.276Z,97605.97
2022-10-05T17:59:39.294Z,97611.59
2022-10-05T18:01:55.018Z,97615.34
2022-10-05T18:04:33.605Z,97616.63
2022-10-05T18:06:38.131Z,97615.81
2022-10-05T18:08:42.139Z,97629.25
2022-10-05T18:11:17.217Z,97640.22
2022-10-05T18:13:34.995Z,97642.31
2022-10-05T18:15:48.699Z,97649.56
2022-10-05T18:17:57.261Z,97650.06
2022-10-05T18:20:15.048Z,97651.94
2022-10-05T18:22:30.285Z,97659.16
2022-10-05T18:24:52.956Z,97662.91
2022-10-05T18:27:08.387Z,97664.78
2022-10-05T18:29:44.822Z,97664.78
2022-10-05T18:31:56.303Z,97667.47
2022-10-05T18:34:13.278Z,97673.09
2022-10-05T18:36:38.116Z,97673.28
2022-10-05T18:38:53.096Z,97680.53
2022-10-05T18:41:03.049Z,97683.22
2022-10-05T18:43:18.807Z,97688.00
2022-10-05T18:45:28.221Z,97693.38
2022-10-05T18:47:39.039Z,97692.81
2022-10-05T18:50:11.833Z,97697.38
2022-10-05T18:52:24.614Z,97708.94
2022-10-05T18:54:44.075Z,97712.66
2022-10-05T18:56:50.949Z,97710.22
2022-10-05T18:59:08.467Z,97724.47
2022-10-05T19:01:30.556Z,97718.28
2022-10-05T19:03:38.706Z,97728.22
2022-10-05T19:05:52.746Z,97726.56
2022-10-05T19:08:08.760Z,97727.41
2022-10-05T19:10:20.895Z,97739.19
2022-10-05T19:12:37.007Z,97738.38
2022-10-05T19:14:52.319Z,97743.94
2022-10-05T19:17:20.676Z,97751.19
2022-10-05T19:19:38.923Z,97741.50
2022-10-05T19:21:51.119Z,97746.88
2022-10-05T19:24:22.994Z,97759.03
2022-10-05T19:26:42.240Z,97759.03
2022-10-05T19:28:58.870Z,97767.31
2022-10-05T19:31:11.800Z,97763.00
2022-10-05T19:33:32.281Z,97767.53
2022-10-05T19:35:46.703Z,97773.16
2022-10-05T19:38:03.136Z,97767.19
2022-10-05T19:40:17.453Z,97767.78
2022-10-05T19:42:38.145Z,97771.28
2022-10-05T19:44:53.993Z,97776.66
2022-10-05T19:47:01.388Z,97772.34
2022-10-05T19:49:04.408Z,97776.66
2022-10-05T19:51:15.855Z,97778.53
2022-10-05T19:53:26.513Z,97779.56
2022-10-05T19:55:35.058Z,97777.94
2022-10-05T19:57:47.563Z,97794.06
2022-10-05T19:59:50.968Z,97800.47
2022-10-05T20:01:56.853Z,97798.81
2022-10-05T20:04:00.211Z,97804.19
2022-10-05T20:06:05.369Z,97810.63
2022-10-05T20:08:15.290Z,97808.16
2022-10-05T20:10:29.543Z,97804.88
2022-10-05T20:12:48.492Z,97802.41
2022-10-05T20:15:25.159Z,97807.56
2022-10-05T20:17:45.777Z,97811.28
2022-10-05T20:20:06.295Z,97822.84
2022-10-05T20:22:35.233Z,97816.66
2022-10-05T20:24:51.756Z,97826.34
2022-10-05T20:27:10.456Z,97829.28
2022-10-05T20:29:16.056Z,97827.63
2022-10-05T20:31:20.166Z,97829.28
2022-10-05T20:33:26.567Z,97830.09
2022-10-05T20:35:31.027Z,97834.41
2022-10-05T20:37:34.333Z,97836.28
2022-10-05T20:39:37.106Z,97840.00
2022-10-05T20:41:40.012Z,97840.00
2022-10-05T20:43:44.595Z,97838.38
2022-10-05T20:45:47.268Z,97852.63
2022-10-05T20:47:50.734Z,97857.19
2022-10-05T20:50:05.457Z,97864.66
2022-10-05T20:52:12.933Z,97867.56
2022-10-05T20:54:18.888Z,97877.25
2022-10-05T20:56:21.978Z,97870.25
2022-10-05T20:58:25.133Z,97876.66
2022-10-05T21:00:52.226Z,97875.84
2022-10-05T21:02:58.205Z,97882.28
2022-10-05T21:05:00.910Z,97883.31
